Time;durP1;ratioP1;P1;durP2;ratioP2;P2;SDS_P1;SDS_P2;PMS_P1;PMS_P2;Temp;Humidity;BMP_temperature;BMP_pressure;BME280_temperature;BME280_humidity;BME280_pressure;Samples;Min_cycle;Max_cycle;Signal;HPM_P1;HPM_P2
2024/04/01 00:00:15;;;;;;;29.73;7.00;;;;;;;14.16;64.29;100112.23;123200;1099;104403;-73
2024/04/01 00:03:08;;;;;;;24.12;6.33;;;;;;;14.11;64.38;100110.38;123340;1099;104271;-74
2024/04/01 00:05:39;;;;;;;25.00;7.05;;;;;;;14.06;64.24;100119.98;123569;1099;104270;-73
2024/04/01 00:08:10;;;;;;;26.90;6.73;;;;;;;14.03;64.34;100105.86;123408;1099;104278;-73
2024/04/01 00:10:42;;;;;;;24.35;6.95;;;;;;;14.00;64.71;100097.91;123454;1099;104260;-74
2024/04/01 00:13:13;;;;;;;27.20;6.80;;;;;;;13.95;64.42;100094.31;123248;1099;104324;-73
2024/04/01 00:15:44;;;;;;;26.13;7.17;;;;;;;13.92;64.32;100093.39;123202;1097;104347;-73
2024/04/01 00:18:16;;;;;;;28.45;7.00;;;;;;;13.89;63.79;100088.94;123130;1099;104389;-73
2024/04/01 00:20:57;;;;;;;28.30;7.37;;;;;;;13.88;64.21;100097.70;123176;1099;104252;-74
2024/04/01 00:23:29;;;;;;;29.67;7.00;;;;;;;13.88;64.59;100089.80;123438;1099;104220;-73
2024/04/01 00:26:00;;;;;;;24.40;6.37;;;;;;;13.86;64.63;100096.81;123374;1099;104674;-73
2024/04/01 00:28:32;;;;;;;26.47;6.60;;;;;;;13.85;65.45;100097.66;123471;1099;104261;-73
2024/04/01 00:31:04;;;;;;;27.17;6.67;;;;;;;13.87;64.74;100095.95;123378;1099;104290;-74
2024/04/01 00:33:35;;;;;;;24.80;6.67;;;;;;;13.84;65.08;100107.33;123224;1099;104302;-74
2024/04/01 00:36:07;;;;;;;23.87;6.37;;;;;;;13.81;65.22;100107.28;123126;1099;104395;-74
2024/04/01 00:38:39;;;;;;;24.57;6.47;;;;;;;13.76;64.67;100097.52;123182;1102;104437;-74
2024/04/01 00:41:10;;;;;;;26.27;6.40;;;;;;;13.69;65.33;100087.75;123158;1098;104733;-73
2024/04/01 00:43:41;;;;;;;24.35;6.55;;;;;;;13.64;65.38;100082.39;123110;1099;104414;-73
2024/04/01 00:46:13;;;;;;;27.33;6.83;;;;;;;13.66;65.71;100086.84;123171;1099;104268;-73
2024/04/01 00:48:45;;;;;;;23.53;6.67;;;;;;;13.70;65.82;100085.13;123133;1099;104354;-73
2024/04/01 00:51:17;;;;;;;24.10;6.83;;;;;;;13.70;65.82;100087.77;123158;1099;104355;-73
2024/04/01 00:53:49;;;;;;;27.07;6.83;;;;;;;13.69;65.45;100077.20;123113;1099;104347;-73
2024/04/01 00:56:22;;;;;;;24.10;6.33;;;;;;;13.68;65.56;100078.05;123113;1102;104345;-73
2024/04/01 00:58:55;;;;;;;21.42;6.60;;;;;;;13.70;65.33;100086.86;123142;1100;104257;-73
2024/04/01 01:01:28;;;;;;;28.87;6.50;;;;;;;13.71;66.19;100083.38;123202;1102;104245;-73
2024/04/01 01:04:00;;;;;;;24.50;7.03;;;;;;;13.73;65.76;100079.00;123099;1099;105668;-73
2024/04/01 01:06:33;;;;;;;25.50;6.45;;;;;;;13.69;65.38;100079.84;123147;1099;104271;-74
2024/04/01 01:09:05;;;;;;;25.57;6.77;;;;;;;13.63;66.10;100075.34;123234;1099;104268;-73
2024/04/01 01:11:36;;;;;;;30.60;7.57;;;;;;;13.57;66.55;100065.60;123174;1099;104271;-73
2024/04/01 01:14:08;;;;;;;26.53;6.90;;;;;;;13.53;66.20;100066.40;123152;1099;104319;-73
2024/04/01 01:16:40;;;;;;;22.80;6.70;;;;;;;13.50;66.19;100066.34;123089;1102;104406;-73
2024/04/01 01:19:12;;;;;;;29.53;8.10;;;;;;;13.43;66.47;100068.00;123145;1100;104632;-73
2024/04/01 01:21:43;;;;;;;26.13;7.30;;;;;;;13.41;66.66;100077.61;123134;1099;104290;-72
2024/04/01 01:24:15;;;;;;;25.27;7.20;;;;;;;13.38;66.76;100076.67;123164;1099;104622;-76
2024/04/01 01:26:47;;;;;;;20.40;6.50;;;;;;;13.36;66.33;100079.28;123157;1099;104348;-73
2024/04/01 01:29:18;;;;;;;30.40;7.05;;;;;;;13.34;66.13;100074.84;123109;1099;104485;-72
2024/04/01 01:31:50;;;;;;;22.87;6.60;;;;;;;13.37;66.08;100072.25;123106;1099;104281;-74
2024/04/01 01:34:21;;;;;;;30.93;8.00;;;;;;;13.35;66.83;100073.98;123140;1099;104272;-73
2024/04/01 01:36:53;;;;;;;23.83;7.53;;;;;;;13.34;66.70;100077.47;123176;1099;104239;-73
2024/04/01 01:39:24;;;;;;;27.97;8.00;;;;;;;13.34;66.72;100082.73;123145;1099;104345;-73
2024/04/01 01:41:56;;;;;;;25.85;6.85;;;;;;;13.31;66.85;100080.92;123136;1099;104383;-73
2024/04/01 01:44:27;;;;;;;24.60;6.95;;;;;;;13.27;67.10;100077.33;123274;1099;104264;-73
2024/04/01 01:46:58;;;;;;;25.60;7.30;;;;;;;13.26;66.81;100075.58;123129;1099;104267;-74
2024/04/01 01:49:30;;;;;;;23.50;8.40;;;;;;;13.25;67.13;100071.16;123149;1099;104249;-74
2024/04/01 01:52:01;;;;;;;24.77;7.50;;;;;;;13.25;66.93;100072.91;123445;1099;104328;-74
2024/04/01 01:54:32;;;;;;;25.40;7.47;;;;;;;13.23;67.40;100070.25;123153;1099;104395;-74
2024/04/01 01:57:04;;;;;;;27.00;8.07;;;;;;;13.23;66.77;100074.61;123131;1099;104270;-74
2024/04/01 01:59:35;;;;;;;23.50;7.40;;;;;;;13.20;67.23;100072.83;123127;1099;104373;-73
2024/04/01 02:02:07;;;;;;;27.80;7.93;;;;;;;13.19;66.96;100067.53;123106;1099;104297;-73
2024/04/01 02:04:38;;;;;;;25.03;7.50;;;;;;;13.17;66.94;100069.27;123115;1099;104357;-74
2024/04/01 02:07:10;;;;;;;29.47;8.17;;;;;;;13.13;67.13;100068.30;123071;1099;104364;-74
2024/04/01 02:09:42;;;;;;;26.73;7.87;;;;;;;13.12;67.91;100072.69;123089;1099;104300;-73
2024/04/01 02:12:13;;;;;;;28.53;8.10;;;;;;;13.12;67.32;100077.95;123107;1099;104626;-74
2024/04/01 02:14:48;;;;;;;23.55;7.85;;;;;;;13.10;67.30;100077.05;123307;1099;105520;-73
2024/04/01 02:17:19;;;;;;;25.00;8.00;;;;;;;13.12;67.57;100082.34;123147;1099;104325;-73
2024/04/01 02:19:51;;;;;;;27.00;7.60;;;;;;;13.14;68.28;100080.62;123045;1100;104437;-73
2024/04/01 02:22:23;;;;;;;23.67;7.33;;;;;;;13.16;68.32;100085.91;123091;1099;104360;-73
2024/04/01 02:24:54;;;;;;;26.80;7.20;;;;;;;13.15;68.17;100081.49;123256;1099;104363;-73
2024/04/01 02:27:25;;;;;;;26.10;7.63;;;;;;;13.15;67.59;100079.77;123093;1099;104305;-72
2024/04/01 02:29:57;;;;;;;25.73;7.27;;;;;;;13.15;68.03;100081.49;123204;1098;104376;-73
2024/04/01 02:32:28;;;;;;;23.25;7.55;;;;;;;13.16;68.47;100083.28;123169;1099;104318;-74
2024/04/01 02:34:59;;;;;;;25.07;7.17;;;;;;;13.17;67.90;100079.80;123190;1099;104283;-72
2024/04/01 02:37:31;;;;;;;30.20;7.73;;;;;;;13.17;68.21;100077.16;123123;1099;104251;-75
2024/04/01 02:40:05;;;;;;;26.13;7.50;;;;;;;13.16;68.07;100073.63;123158;1099;104246;-73
2024/04/01 02:42:36;;;;;;;25.85;8.30;;;;;;;13.13;68.34;100079.73;123077;1099;104369;-73
2024/04/01 02:45:08;;;;;;;27.07;7.63;;;;;;;13.11;68.83;100080.56;123180;1098;104325;-72
2024/04/01 02:47:40;;;;;;;26.40;8.00;;;;;;;13.11;68.77;100077.92;123230;1099;104632;-73
2024/04/01 02:50:11;;;;;;;26.70;8.13;;;;;;;13.11;68.63;100075.29;123452;1099;104242;-74
2024/04/01 02:52:42;;;;;;;27.20;7.83;;;;;;;13.11;68.30;100077.92;123412;1099;104255;-74
2024/04/01 02:55:14;;;;;;;27.00;7.67;;;;;;;13.08;68.49;100080.50;123324;1099;104270;-73
2024/04/01 02:57:45;;;;;;;29.30;9.00;;;;;;;13.03;68.65;100061.98;123162;1099;104427;-73
2024/04/01 03:00:17;;;;;;;31.70;8.23;;;;;;;12.99;68.63;100068.03;123178;1099;104306;-74
2024/04/01 03:02:50;;;;;;;25.57;7.80;;;;;;;12.93;68.79;100063.56;123168;1098;104278;-73
2024/04/01 03:05:21;;;;;;;24.80;8.78;;;;;;;12.91;68.50;100064.37;123335;1098;104300;-74
2024/04/01 03:07:53;;;;;;;36.03;8.77;;;;;;;12.89;69.03;100082.78;123149;1099;104297;-74
2024/04/01 03:10:24;;;;;;;33.13;8.77;;;;;;;12.86;69.01;100079.20;123107;1099;104412;-74
2024/04/01 03:12:55;;;;;;;29.37;8.73;;;;;;;12.86;68.77;100080.09;123390;1099;104337;-71
2024/04/01 03:15:27;;;;;;;30.17;8.30;;;;;;;12.83;69.49;100074.76;123178;1099;104270;-72
2024/04/01 03:17:58;;;;;;;35.55;8.20;;;;;;;12.84;69.29;100086.16;123116;1099;104361;-72
2024/04/01 03:20:30;;;;;;;27.00;7.73;;;;;;;12.83;69.70;100087.92;123110;1099;104338;-74
2024/04/01 03:23:01;;;;;;;35.13;9.37;;;;;;;12.83;69.16;100082.66;123103;1102;104361;-74
2024/04/01 03:25:32;;;;;;;31.27;7.97;;;;;;;12.83;69.61;100092.31;123181;1099;104290;-73
2024/04/01 03:28:04;;;;;;;31.53;9.20;;;;;;;12.83;69.77;100093.19;123277;1099;104270;-74
2024/04/01 03:30:35;;;;;;;31.30;8.60;;;;;;;12.83;69.60;100082.66;123181;1099;104373;-73
2024/04/01 03:33:07;;;;;;;29.27;9.27;;;;;;;12.82;70.07;100094.03;123120;1099;104333;-74
2024/04/01 03:35:39;;;;;;;28.75;9.35;;;;;;;12.82;69.87;100095.79;123089;1099;104268;-74
2024/04/01 03:38:10;;;;;;;31.33;8.40;;;;;;;12.83;69.59;100092.31;123245;1099;104268;-73
2024/04/01 03:40:42;;;;;;;32.33;8.87;;;;;;;12.84;70.28;100086.16;123141;1099;104296;-73
2024/04/01 03:43:14;;;;;;;32.77;9.77;;;;;;;12.86;70.13;100098.52;123154;1099;104317;-74
2024/04/01 03:45:45;;;;;;;35.27;9.33;;;;;;;12.86;70.46;100095.01;123194;1099;104370;-74
2024/04/01 03:48:16;;;;;;;31.87;9.03;;;;;;;12.84;70.28;100097.61;123109;1102;107029;-74
2024/04/01 03:50:47;;;;;;;32.07;9.20;;;;;;;12.84;70.43;100096.70;123178;1099;104355;-73
2024/04/01 03:53:19;;;;;;;31.27;8.57;;;;;;;12.84;70.29;100094.06;123143;1099;104294;-73
2024/04/01 03:55:50;;;;;;;32.93;9.50;;;;;;;12.86;70.77;100095.01;123121;1099;104200;-72
2024/04/01 03:58:21;;;;;;;30.70;9.67;;;;;;;12.84;70.55;100094.06;123079;1099;118635;-73
2024/04/01 04:00:53;;;;;;;34.20;9.60;;;;;;;12.85;70.62;100098.48;123266;1099;104325;-73
2024/04/01 04:03:25;;;;;;;35.10;9.37;;;;;;;12.89;70.52;100100.34;123446;1099;104641;-74
2024/04/01 04:05:56;;;;;;;32.50;9.23;;;;;;;12.93;70.57;100097.80;123136;1099;104283;-73
2024/04/01 04:08:28;;;;;;;34.37;9.47;;;;;;;12.95;70.63;100096.06;123177;1099;104383;-73
2024/04/01 04:10:59;;;;;;;30.60;9.07;;;;;;;12.98;70.85;100102.23;123448;1099;104254;-74
2024/04/01 04:13:31;;;;;;;32.47;9.97;;;;;;;13.01;71.10;100100.58;123123;1099;104405;-74
2024/04/01 04:16:02;;;;;;;27.60;9.43;;;;;;;13.01;70.80;100103.21;123270;1098;104272;-74
2024/04/01 04:18:33;;;;;;;34.77;10.47;;;;;;;13.05;70.84;100107.66;123281;1099;104286;-73
2024/04/01 04:21:09;;;;;;;34.23;10.00;;;;;;;13.04;71.06;100115.53;123510;1099;104245;-73
2024/04/01 04:23:41;;;;;;;29.25;10.60;;;;;;;13.06;70.91;100116.47;123286;1099;104360;-73
2024/04/01 04:26:14;;;;;;;34.55;11.20;;;;;;;13.07;70.98;100108.59;123282;1099;104422;-73
2024/04/01 04:28:45;;;;;;;33.30;10.47;;;;;;;13.08;71.32;100115.63;123210;1099;104620;-74
2024/04/01 04:31:16;;;;;;;36.50;11.10;;;;;;;13.13;71.19;100123.61;123238;1102;104354;-72
2024/04/01 04:33:47;;;;;;;32.33;10.00;;;;;;;13.16;71.77;100121.04;123211;1099;104245;-73
2024/04/01 04:36:20;;;;;;;37.43;11.40;;;;;;;13.20;71.14;100116.70;123240;1099;104275;-73
2024/04/01 04:38:52;;;;;;;37.60;11.00;;;;;;;13.26;71.37;100116.82;123210;1099;104239;-73
2024/04/01 04:41:24;;;;;;;33.40;10.83;;;;;;;13.29;71.41;100109.88;123330;1099;104273;-73
2024/04/01 04:43:58;;;;;;;33.83;10.47;;;;;;;13.36;71.42;100116.17;123195;1099;104402;-72
2024/04/01 04:46:29;;;;;;;34.50;11.00;;;;;;;13.38;71.51;100118.84;123298;1099;104239;-73
2024/04/01 04:49:01;;;;;;;29.93;10.37;;;;;;;13.42;71.47;100116.29;123469;1099;104379;-73
2024/04/01 04:51:33;;;;;;;31.23;10.60;;;;;;;13.47;72.13;100116.38;123494;1099;104371;-72
2024/04/01 04:54:06;;;;;;;38.23;11.10;;;;;;;13.52;71.32;100112.06;123149;1102;104357;-73
2024/04/01 04:56:38;;;;;;;29.72;10.88;;;;;;;13.56;71.80;100121.81;123381;1099;104909;-72
2024/04/01 04:59:10;;;;;;;33.07;9.77;;;;;;;13.63;71.42;100121.06;123403;1102;104274;-72
2024/04/01 05:01:43;;;;;;;32.60;10.73;;;;;;;13.73;71.88;100119.46;123523;1099;104246;-72
2024/04/01 05:04:14;;;;;;;28.63;9.93;;;;;;;13.81;71.45;100116.95;123273;1099;104264;-72
2024/04/01 05:06:45;;;;;;;37.93;10.27;;;;;;;13.89;72.03;100115.31;123775;1102;104248;-72
2024/04/01 05:09:17;;;;;;;29.53;9.53;;;;;;;13.96;71.60;100111.02;123563;1099;104169;-72
2024/04/01 05:11:48;;;;;;;31.63;10.50;;;;;;;14.03;71.78;100115.54;123885;1099;104253;-74
2024/04/01 05:14:21;;;;;;;31.80;10.30;;;;;;;14.10;71.71;100119.15;123687;1099;104245;-72
2024/04/01 05:16:53;;;;;;;28.70;10.33;;;;;;;14.15;71.95;100122.77;123523;1099;104377;-72
2024/04/01 05:19:25;;;;;;;32.10;9.50;;;;;;;14.20;72.11;100121.95;123588;1099;104319;-72
2024/04/01 05:21:57;;;;;;;28.00;10.27;;;;;;;14.26;71.81;100115.89;123690;1099;104242;-72
2024/04/01 05:24:29;;;;;;;37.07;10.87;;;;;;;14.34;71.89;100113.36;123742;1099;104239;-74
2024/04/01 05:27:10;;;;;;;37.10;9.97;;;;;;;14.38;71.51;100108.14;123813;1099;104182;-72
2024/04/01 05:29:42;;;;;;;36.43;10.63;;;;;;;14.45;71.08;100110.88;124072;1099;102383;-72
2024/04/01 05:32:14;;;;;;;29.17;10.20;;;;;;;14.52;72.08;100110.98;124115;1099;104274;-72
2024/04/01 05:34:46;;;;;;;35.30;11.25;;;;;;;14.62;71.49;100114.65;123994;1099;103384;-72
2024/04/01 05:37:19;;;;;;;34.43;10.87;;;;;;;14.69;70.96;100113.88;123940;1099;104270;-75
2024/04/01 05:39:53;;;;;;;36.03;11.03;;;;;;;14.74;71.26;100120.09;124254;1098;104245;-74
2024/04/01 05:42:24;;;;;;;39.67;11.18;;;;;;;14.80;71.47;100107.82;125037;1098;103163;-75
2024/04/01 05:44:56;;;;;;;32.93;10.30;;;;;;;14.92;71.88;100126.45;124032;1099;104349;-74
2024/04/01 05:47:28;;;;;;;35.03;11.57;;;;;;;15.03;71.19;100122.18;124125;1099;104208;-72
2024/04/01 05:49:59;;;;;;;38.40;11.57;;;;;;;15.11;70.86;100124.91;124262;1099;104195;-75
2024/04/01 05:52:30;;;;;;;35.47;11.97;;;;;;;15.17;71.64;100118.81;123863;1099;104316;-74
2024/04/01 05:55:03;;;;;;;36.13;11.10;;;;;;;15.22;71.34;100132.95;124312;1099;102237;-75
2024/04/01 05:57:37;;;;;;;32.07;10.77;;;;;;;15.25;71.56;100133.90;124175;1099;104272;-74
2024/04/01 06:00:11;;;;;;;33.27;11.80;;;;;;;15.30;70.89;100138.33;124219;1099;104239;-75
2024/04/01 06:02:47;;;;;;;40.83;12.03;;;;;;;15.34;70.41;100132.22;124107;1099;104274;-74
2024/04/01 06:05:18;;;;;;;39.30;11.23;;;;;;;15.38;70.59;100126.98;124190;1098;104265;-74
2024/04/01 06:07:50;;;;;;;30.40;12.03;;;;;;;15.42;70.75;100138.45;124008;1097;104242;-73
2024/04/01 06:10:21;;;;;;;38.60;11.67;;;;;;;15.45;70.78;100141.13;124189;1099;104293;-76
2024/04/01 06:12:54;;;;;;;38.90;12.07;;;;;;;15.50;70.26;100133.25;124240;1099;104204;-74
2024/04/01 06:15:28;;;;;;;40.57;12.97;;;;;;;15.55;70.13;100131.52;124143;1099;104271;-73
2024/04/01 06:18:00;;;;;;;38.33;12.30;;;;;;;15.59;70.61;100128.05;123923;1099;104260;-76
2024/04/01 06:20:32;;;;;;;40.00;13.40;;;;;;;15.63;70.86;100136.02;124412;1099;104411;-74
2024/04/01 06:23:07;;;;;;;38.60;12.30;;;;;;;15.69;70.34;100140.50;124077;1099;104347;-74
2024/04/01 06:25:42;;;;;;;42.70;14.47;;;;;;;15.77;69.95;100143.25;124702;1102;104146;-73
2024/04/01 06:28:14;;;;;;;41.53;13.17;;;;;;;15.83;70.02;100139.75;123761;1099;104168;-75
2024/04/01 06:30:46;;;;;;;38.63;12.63;;;;;;;15.84;69.70;100137.11;124312;1099;104233;-76
2024/04/01 06:33:17;;;;;;;40.83;12.00;;;;;;;15.91;69.93;100132.75;124376;1099;104211;-78
2024/04/01 06:35:59;;;;;;;33.23;11.93;;;;;;;15.99;69.75;100136.37;124677;1099;104153;-76
2024/04/01 06:38:31;;;;;;;34.97;12.27;;;;;;;16.05;69.51;100143.45;124146;1099;104271;-75
2024/04/01 06:41:02;;;;;;;35.90;12.00;;;;;;;16.02;70.00;100146.06;124122;1099;104293;-75
2024/04/01 06:43:36;;;;;;;35.80;12.07;;;;;;;16.04;69.84;100147.86;124039;1099;104316;-75
2024/04/01 06:46:08;;;;;;;32.00;11.07;;;;;;;16.11;69.42;100154.08;123883;1099;104223;-76
2024/04/01 06:48:41;;;;;;;32.33;12.70;;;;;;;16.12;69.39;100151.45;123999;1099;103089;-73
2024/04/01 06:51:13;;;;;;;35.88;11.68;;;;;;;16.13;69.65;100147.94;123949;1099;102299;-75
2024/04/01 06:53:48;;;;;;;40.83;12.87;;;;;;;16.21;69.29;100149.77;124445;1099;104287;-73
2024/04/01 06:56:22;;;;;;;33.05;12.15;;;;;;;16.26;69.58;100142.73;124458;1099;104239;-76
2024/04/01 06:58:55;;;;;;;38.92;12.30;;;;;;;16.33;69.15;100148.08;124561;1098;104405;-76
2024/04/01 07:01:29;;;;;;;37.93;11.90;;;;;;;16.33;68.73;100153.38;124092;1102;104361;-76
2024/04/01 07:04:07;;;;;;;33.97;11.97;;;;;;;16.36;69.24;100149.84;124162;1102;104334;-75
2024/04/01 07:06:42;;;;;;;38.80;11.77;;;;;;;16.41;68.92;100158.72;124051;1099;104227;-76
2024/04/01 07:09:13;;;;;;;36.90;11.53;;;;;;;16.41;68.61;100153.42;124441;1100;104261;-74
2024/04/01 07:11:44;;;;;;;38.53;12.17;;;;;;;16.46;69.20;100148.16;124074;1099;104274;-72
2024/04/01 07:14:17;;;;;;;38.37;11.43;;;;;;;16.50;68.75;100145.53;124330;1099;104239;-72
2024/04/01 07:16:53;;;;;;;34.97;11.00;;;;;;;16.55;68.61;100142.91;124313;1098;104290;-74
2024/04/01 07:19:32;;;;;;;29.93;11.80;;;;;;;16.64;68.91;100144.70;123999;1099;104219;-72
2024/04/01 07:22:06;;;;;;;35.10;11.63;;;;;;;16.73;68.74;100143.88;123896;1099;104236;-75
2024/04/01 07:24:38;;;;;;;32.20;11.17;;;;;;;16.80;68.76;100130.67;123855;1099;104259;-74
2024/04/01 07:27:13;;;;;;;41.17;12.43;;;;;;;16.87;68.44;100137.78;124004;1099;104214;-73
2024/04/01 07:29:50;;;;;;;33.97;12.37;;;;;;;16.89;67.73;100138.69;124491;1102;104239;-74
2024/04/01 07:32:22;;;;;;;34.00;11.60;;;;;;;16.93;68.31;100134.28;124433;1099;104723;-74
2024/04/01 07:34:53;;;;;;;33.47;11.93;;;;;;;17.04;68.15;100131.67;123871;1102;104245;-76
2024/04/01 07:37:25;;;;;;;35.97;11.67;;;;;;;17.18;68.57;100137.89;123810;1099;104514;-72
2024/04/01 07:39:59;;;;;;;35.53;11.67;;;;;;;17.33;68.00;100130.88;124005;1099;104275;-74
2024/04/01 07:42:31;;;;;;;33.70;11.67;;;;;;;17.47;67.95;100117.62;124092;1099;104219;-73
2024/04/01 07:45:06;;;;;;;31.83;11.47;;;;;;;17.63;67.91;100130.03;124082;1099;104192;-73
2024/04/01 07:47:38;;;;;;;35.63;12.00;;;;;;;17.79;67.65;100121.20;123912;1099;104306;-74
2024/04/01 07:50:13;;;;;;;35.53;12.33;;;;;;;17.92;67.82;100123.86;123916;1099;104373;-75
2024/04/01 07:52:47;;;;;;;38.70;12.57;;;;;;;18.07;67.32;100121.20;124062;1099;102759;-74
2024/04/01 07:55:16;;;;;;;;;;;;;;;18.10;65.98;100115.89;124030;1099;104242;-74
2024/04/01 07:57:48;;;;;;;37.70;11.33;;;;;;;18.26;66.98;100126.48;124041;1100;104275;-74
2024/04/01 08:00:19;;;;;;;35.67;11.57;;;;;;;18.45;66.64;100122.92;124381;1099;101953;-72
2024/04/01 08:02:57;;;;;;;36.27;11.43;;;;;;;18.67;66.62;100104.25;124520;1099;104194;-75
2024/04/01 08:05:33;;;;;;;37.93;11.10;;;;;;;18.90;66.48;100112.17;126102;1099;102672;-75
2024/04/01 08:08:05;;;;;;;33.03;11.40;;;;;;;19.10;65.90;100111.17;123981;1099;104252;-72
2024/04/01 08:10:37;;;;;;;36.77;11.67;;;;;;;19.26;66.35;100112.86;124265;1099;104246;-73
2024/04/01 08:13:10;;;;;;;32.47;11.70;;;;;;;19.39;65.79;100119.84;124249;1099;104706;-75
2024/04/01 08:15:42;;;;;;;33.67;11.13;;;;;;;19.47;65.23;100121.59;124170;1099;104336;-74
2024/04/01 08:18:22;;;;;;;43.50;11.53;;;;;;;19.58;64.79;100109.08;124433;1099;104262;-73
2024/04/01 08:20:56;;;;;;;39.60;12.07;;;;;;;19.77;65.58;100114.30;124196;1099;104271;-75
2024/04/01 08:23:37;;;;;;;45.40;12.00;;;;;;;19.87;64.83;100116.88;124403;1099;103508;-75
2024/04/01 08:26:10;;;;;;;34.93;10.77;;;;;;;19.99;65.08;100114.99;124825;1099;102909;-72
2024/04/01 08:28:42;;;;;;;37.40;11.70;;;;;;;20.12;64.68;100119.31;124638;1099;102607;-74
2024/04/01 08:31:13;;;;;;;31.23;11.27;;;;;;;20.29;63.92;100127.14;124571;1099;104220;-74
2024/04/01 08:33:45;;;;;;;35.27;10.83;;;;;;;20.43;64.08;100121.67;124405;1099;104220;-72
2024/04/01 08:36:17;;;;;;;33.90;11.57;;;;;;;20.57;63.60;100116.16;124648;1099;104163;-72
2024/04/01 08:38:50;;;;;;;38.53;11.40;;;;;;;20.67;63.66;100104.54;124148;1099;104214;-73
2024/04/01 08:44:37;;;;;;;38.73;11.97;;;;;;;21.09;63.22;100088.88;124029;1099;104242;-74
2024/04/01 08:47:10;;;;;;;35.93;12.20;;;;;;;21.24;62.73;100092.22;123947;1099;104245;-74
2024/04/01 08:49:51;;;;;;;37.63;12.20;;;;;;;21.30;62.28;100097.47;123937;1099;104153;-73
2024/04/01 08:52:31;;;;;;;40.63;12.00;;;;;;;21.35;61.85;100096.50;124072;1099;104272;-74
2024/04/01 08:55:02;;;;;;;44.40;12.73;;;;;;;21.39;61.65;100089.32;124075;1099;107107;-74
2024/04/01 08:57:34;;;;;;;37.73;11.33;;;;;;;21.46;61.86;100084.80;124217;1099;104239;-74
2024/04/01 09:00:08;;;;;;;39.07;11.63;;;;;;;21.59;60.99;100089.05;124762;1099;104153;-75
2024/04/01 09:02:43;;;;;;;33.73;11.43;;;;;;;21.68;61.20;100082.69;124183;1099;104351;-74
2024/04/01 09:05:15;;;;;;;35.80;10.93;;;;;;;21.65;60.26;100078.27;124217;1099;117826;-74
2024/04/01 09:07:47;;;;;;;;;;;;;;;21.59;59.06;100078.37;124251;1099;104238;-73
2024/04/01 09:10:22;;;;;;;43.40;11.67;;;;;;;21.62;59.96;100080.12;124273;1100;104211;-74
2024/04/01 09:13:00;;;;;;;35.83;11.67;;;;;;;21.70;59.29;100080.86;124176;1099;104243;-74
2024/04/01 09:15:32;;;;;;;42.53;11.70;;;;;;;21.83;59.61;100076.19;124121;1099;104172;-73
2024/04/01 09:18:05;;;;;;;43.00;12.30;;;;;;;21.93;59.27;100067.11;124127;1099;104299;-76
2024/04/01 09:20:37;;;;;;;42.62;11.55;;;;;;;22.07;59.28;100067.73;124345;1099;102448;-73
2024/04/01 09:23:08;;;;;;;37.97;10.80;;;;;;;22.13;58.82;100061.41;124326;1099;104201;-73
2024/04/01 09:25:41;;;;;;;32.37;10.90;;;;;;;22.18;58.28;100064.86;124162;1099;104242;-73
2024/04/01 09:28:12;;;;;;;34.37;10.67;;;;;;;22.30;58.71;100065.53;124201;1099;104427;-76
2024/04/01 09:30:44;;;;;;;36.70;11.13;;;;;;;22.43;58.48;100053.73;124101;1099;104179;-74
2024/04/01 09:33:17;;;;;;;33.80;9.70;;;;;;;22.57;58.36;100051.65;124396;1099;104374;-74
2024/04/01 09:35:50;;;;;;;33.17;10.30;;;;;;;22.71;57.89;100051.36;124382;1099;103130;-71
2024/04/01 09:38:23;;;;;;;36.13;10.03;;;;;;;22.84;57.48;100049.29;124666;1099;104302;-73
2024/04/01 09:41:03;;;;;;;36.57;10.17;;;;;;;23.01;57.11;100046.23;125345;1098;104267;-73
2024/04/01 09:43:38;;;;;;;37.50;9.93;;;;;;;23.16;56.62;100039.70;124760;1099;104240;-73
2024/04/01 09:46:10;;;;;;;33.27;9.37;;;;;;;23.25;56.56;100042.16;124221;1099;106913;-72
2024/04/01 09:48:45;;;;;;;37.93;10.07;;;;;;;23.32;55.95;100041.08;124239;1099;104248;-73
2024/04/01 09:51:19;;;;;;;39.90;9.30;;;;;;;23.41;55.95;100033.76;124268;1099;104188;-74
2024/04/01 09:53:55;;;;;;;41.50;10.33;;;;;;;23.54;55.75;100035.20;124386;1099;104169;-75
2024/04/01 09:57:09;;;;;;;43.40;11.77;;;;;;;23.67;55.46;100042.02;124166;1099;118584;-72
2024/04/01 10:00:18;;;;;;;40.15;10.85;;;;;;;23.86;55.33;100037.08;124129;1099;103082;-73
2024/04/01 10:03:21;;;;;;;32.80;9.67;;;;;;;24.10;55.03;100031.97;124213;1099;104288;-73
2024/04/01 10:06:41;;;;;;;39.57;10.27;;;;;;;24.32;54.79;100034.92;124228;1099;103629;-74
2024/04/01 10:09:43;;;;;;;42.27;9.67;;;;;;;24.52;53.85;100031.67;124357;1099;102444;-73
2024/04/01 10:12:44;;;;;;;30.93;10.13;;;;;;;24.70;53.94;100019.56;124693;1099;104404;-74
2024/04/01 10:15:51;;;;;;;39.97;9.10;;;;;;;24.85;53.24;100028.05;124272;1099;104424;-73
2024/04/01 10:18:49;;;;;;;41.47;10.17;;;;;;;25.03;52.64;100014.06;126192;1099;101919;-76
2024/04/01 10:21:40;;;;;;;38.97;9.63;;;;;;;25.21;52.43;100014.39;124313;1100;104258;-75
2024/04/01 10:24:44;;;;;;;40.33;8.40;;;;;;;25.40;51.18;100020.97;124147;1099;102874;-74
2024/04/01 10:27:49;;;;;;;47.63;8.70;;;;;;;25.65;49.25;100012.95;124037;1102;119475;-73
2024/04/01 10:30:28;;;;;;;;;;;;;;;25.90;46.12;100016.57;124680;1099;104242;-75
2024/04/01 10:33:39;;;;;;;44.40;8.70;;;;;;;26.13;48.00;100022.06;126181;1099;101866;-74
2024/04/01 10:36:21;;;;;;;36.80;8.40;;;;;;;26.33;47.70;100012.36;125708;1099;102859;-73
2024/04/01 10:39:22;;;;;;;42.30;8.53;;;;;;;26.49;46.64;100008.17;124318;1099;104226;-74
2024/04/01 10:42:37;;;;;;;43.27;8.50;;;;;;;26.62;45.45;99997.81;124299;1099;104259;-73
2024/04/01 10:45:38;;;;;;;42.93;8.93;;;;;;;26.79;45.39;99999.02;124078;1102;104141;-74
2024/04/01 10:48:25;;;;;;;44.17;9.60;;;;;;;26.81;44.69;99986.36;124370;1099;102953;-74
2024/04/01 10:51:35;;;;;;;48.23;10.23;;;;;;;26.81;43.44;99989.92;126338;1099;102480;-74
2024/04/01 10:54:18;;;;;;;43.53;9.27;;;;;;;26.96;43.06;99985.75;126170;1099;101809;-73
2024/04/01 10:57:36;;;;;;;42.37;8.97;;;;;;;27.10;42.85;99977.11;124196;1102;104357;-76
2024/04/01 11:00:30;;;;;;;42.43;8.83;;;;;;;27.25;41.72;99975.58;124237;1099;104681;-75
2024/04/01 11:03:48;;;;;;;45.77;9.43;;;;;;;27.38;41.13;99970.61;126174;1099;101535;-74
2024/04/01 11:06:33;;;;;;;53.97;9.30;;;;;;;27.56;40.73;99972.49;124082;1099;102595;-75
2024/04/01 11:09:30;;;;;;;44.30;9.10;;;;;;;27.70;40.22;99965.64;124132;1099;104357;-76
2024/04/01 11:12:12;;;;;;;47.23;9.17;;;;;;;27.82;39.53;99954.31;124077;1102;104178;-74
2024/04/01 11:14:49;;;;;;;49.67;9.03;;;;;;;27.95;38.53;99950.14;124115;1099;102687;-74
2024/04/01 11:17:21;;;;;;;40.55;8.50;;;;;;;28.08;38.12;99950.48;125362;1099;104243;-73
2024/04/01 11:20:33;;;;;;;43.17;8.57;;;;;;;28.16;36.65;99947.44;124017;1099;104189;-73
2024/04/01 11:23:33;;;;;;;42.35;8.45;;;;;;;28.25;36.82;99940.72;124016;1099;104245;-74
2024/04/01 11:26:26;;;;;;;44.73;8.50;;;;;;;28.25;36.46;99929.93;124001;1099;102942;-74
2024/04/01 11:29:21;;;;;;;39.95;9.30;;;;;;;28.21;35.79;99931.91;124006;1099;104198;-72
2024/04/01 11:32:02;;;;;;;54.87;10.57;;;;;;;28.24;34.91;99933.59;124146;1099;104242;-74
2024/04/01 11:34:41;;;;;;;;;;;;;;;28.30;32.12;99930.61;124028;1099;104333;-75
2024/04/01 11:37:32;;;;;;;40.57;9.30;;;;;;;28.37;33.51;99923.09;123988;1102;104252;-73
2024/04/01 11:40:08;;;;;;;43.70;9.20;;;;;;;28.35;33.49;99928.56;124035;1099;104174;-74